Time;durP1;ratioP1;P1;durP2;ratioP2;P2;SDS_P1;SDS_P2;PMS_P1;PMS_P2;Temp;Humidity;BMP_temperature;BMP_pressure;BME280_temperature;BME280_humidity;BME280_pressure;Samples;Min_cycle;Max_cycle;Signal;HPM_P1;HPM_P2
2021/12/22 00:02:11;;;;;;;3.13;2.25;;;15.90;36.00;;;;;;5114426;28;20041;-63
2021/12/22 00:04:43;;;;;;;2.15;1.90;;;16.50;35.10;;;;;;5113302;28;20552;-63
2021/12/22 00:07:09;;;;;;;3.70;2.03;;;17.40;34.60;;;;;;5114091;28;20039;-63
2021/12/22 00:09:35;;;;;;;2.22;1.63;;;18.40;32.40;;;;;;5113256;28;20129;-63
2021/12/22 00:12:02;;;;;;;3.90;2.10;;;19.10;31.10;;;;;;5113068;28;20740;-63
2021/12/22 00:14:27;;;;;;;3.67;2.20;;;19.80;30.20;;;;;;5112837;28;20483;-63
2021/12/22 00:16:56;;;;;;;2.83;2.08;;;20.30;29.60;;;;;;5112703;28;20043;-63
2021/12/22 00:19:22;;;;;;;1.85;1.63;;;20.80;29.10;;;;;;5114262;28;20039;-63
2021/12/22 00:21:47;;;;;;;3.22;2.10;;;21.30;28.70;;;;;;5112643;28;20409;-63
2021/12/22 00:24:13;;;;;;;2.30;1.50;;;21.70;28.20;;;;;;5113963;28;20031;-63
2021/12/22 00:26:39;;;;;;;2.28;2.08;;;22.10;27.80;;;;;;5113721;28;20036;-63
2021/12/22 00:29:06;;;;;;;2.72;1.63;;;22.40;27.40;;;;;;5113819;28;20415;-63
2021/12/22 00:31:39;;;;;;;2.25;1.70;;;22.80;27.20;;;;;;5113780;28;20040;-63
2021/12/22 00:34:06;;;;;;;1.98;1.77;;;23.00;26.80;;;;;;5113731;28;20411;-63
2021/12/22 00:36:32;;;;;;;2.67;1.90;;;23.30;26.50;;;;;;5113684;28;20119;-63
2021/12/22 00:38:58;;;;;;;2.33;1.60;;;23.50;26.30;;;;;;5112265;28;20432;-63
2021/12/22 00:41:26;;;;;;;1.73;1.60;;;23.70;26.10;;;;;;5111568;28;20036;-63
2021/12/22 00:43:51;;;;;;;2.13;1.92;;;23.80;26.00;;;;;;5112438;28;20040;-63
2021/12/22 00:46:17;;;;;;;2.35;1.35;;;24.00;25.80;;;;;;5113499;28;20505;-63
2021/12/22 00:48:43;;;;;;;2.78;1.70;;;24.20;25.50;;;;;;5112109;28;20118;-63
2021/12/22 00:51:09;;;;;;;2.20;1.85;;;24.40;25.40;;;;;;5112115;28;20126;-63
2021/12/22 00:53:34;;;;;;;3.83;1.23;;;24.50;25.20;;;;;;5112157;28;20118;-63
2021/12/22 00:56:02;;;;;;;3.30;1.77;;;24.70;25.20;;;;;;5113121;28;20458;-63
2021/12/22 00:58:28;;;;;;;1.30;1.13;;;24.70;25.00;;;;;;5111650;28;20510;-63
2021/12/22 01:00:53;;;;;;;2.55;1.50;;;24.90;24.90;;;;;;5113323;28;20028;-67
2021/12/22 01:03:20;;;;;;;2.20;1.63;;;25.00;24.80;;;;;;5113051;28;20439;-63
2021/12/22 01:05:46;;;;;;;1.73;1.30;;;25.10;24.70;;;;;;5111725;28;20043;-63
2021/12/22 01:08:15;;;;;;;3.80;1.80;;;25.20;24.60;;;;;;5112999;28;20443;-63
2021/12/22 01:10:41;;;;;;;2.35;1.70;;;25.30;24.60;;;;;;5111861;28;20047;-63
2021/12/22 01:13:08;;;;;;;2.72;1.30;;;25.30;24.40;;;;;;5111833;28;20051;-63
2021/12/22 01:15:35;;;;;;;2.85;1.95;;;25.40;24.40;;;;;;5111888;28;20118;-63
2021/12/22 01:18:12;;;;;;;2.00;1.30;;;25.50;24.30;;;;;;5112799;28;20385;-63
2021/12/22 01:20:57;;;;;;;2.92;1.48;;;25.60;24.40;;;;;;5112952;28;20440;-63
2021/12/22 01:23:26;;;;;;;2.25;1.80;;;25.70;24.30;;;;;;5112177;28;20384;-63
2021/12/22 01:25:52;;;;;;;2.72;1.70;;;25.70;24.20;;;;;;5112964;28;20031;-63
2021/12/22 01:28:24;;;;;;;1.88;1.45;;;25.80;24.10;;;;;;5111649;28;20085;-63
2021/12/22 01:30:50;;;;;;;2.75;1.40;;;25.80;24.00;;;;;;5112731;28;20300;-63
2021/12/22 01:33:19;;;;;;;1.73;1.20;;;25.90;24.10;;;;;;5111589;28;20114;-63
2021/12/22 01:35:45;;;;;;;2.58;1.30;;;25.90;24.00;;;;;;5112584;28;20036;-63
2021/12/22 01:38:11;;;;;;;1.50;1.40;;;26.00;24.00;;;;;;5111148;28;20538;-63
2021/12/22 01:40:42;;;;;;;2.08;1.52;;;26.00;23.90;;;;;;5112468;28;20176;-63
2021/12/22 01:43:09;;;;;;;2.00;1.27;;;26.10;24.50;;;;;;5112570;28;20475;-63
2021/12/22 01:51:07;;;;;;;1.48;1.10;;;26.20;23.80;;;;;;5108244;28;20551;-63
2021/12/22 01:53:45;;;;;;;1.52;1.15;;;26.20;23.80;;;;;;5108653;28;20093;-63
2021/12/22 01:56:24;;;;;;;1.58;1.08;;;26.30;23.80;;;;;;5108355;28;20372;-63
2021/12/22 01:58:53;;;;;;;1.58;1.35;;;26.30;23.70;;;;;;5109707;28;20720;-63
2021/12/22 02:01:19;;;;;;;2.93;2.27;;;26.40;23.70;;;;;;5109708;28;20116;-63
2021/12/22 02:03:47;;;;;;;2.65;1.73;;;26.40;24.20;;;;;;5108209;28;20047;-63
2021/12/22 02:06:14;;;;;;;2.97;1.70;;;26.40;23.60;;;;;;5109404;28;20046;-63
2021/12/22 02:08:41;;;;;;;2.15;1.20;;;26.50;23.60;;;;;;5109569;28;20040;-63
2021/12/22 02:11:11;;;;;;;2.55;1.38;;;26.50;23.60;;;;;;5108288;28;20036;-63
2021/12/22 02:13:40;;;;;;;1.60;1.15;;;26.50;23.60;;;;;;5108118;28;20039;-63
2021/12/22 02:16:11;;;;;;;2.33;1.73;;;26.50;23.60;;;;;;5107979;28;20097;-63
2021/12/22 02:18:39;;;;;;;2.83;1.52;;;26.50;23.50;;;;;;5109224;28;20480;-63
2021/12/22 02:21:06;;;;;;;1.73;1.40;;;26.50;23.60;;;;;;5108160;28;20043;-63
2021/12/22 02:23:33;;;;;;;2.00;1.20;;;26.40;23.60;;;;;;5109180;28;20036;-63
2021/12/22 02:26:12;;;;;;;3.47;1.70;;;26.30;23.60;;;;;;5109079;28;20044;-63
2021/12/22 02:28:44;;;;;;;2.17;1.50;;;26.30;23.70;;;;;;5107986;28;20065;-63
2021/12/22 02:31:14;;;;;;;1.60;1.25;;;26.40;23.70;;;;;;5107903;28;20146;-63
2021/12/22 02:33:42;;;;;;;2.13;1.05;;;26.50;23.60;;;;;;5108987;28;20088;-63
2021/12/22 02:36:21;;;;;;;1.75;1.15;;;26.60;23.50;;;;;;5108903;28;20043;-63
2021/12/22 02:38:51;;;;;;;4.30;1.65;;;26.60;23.40;;;;;;5108944;28;20047;-64
2021/12/22 02:41:18;;;;;;;1.80;1.60;;;26.70;23.40;;;;;;5108760;28;20117;-63
2021/12/22 02:43:48;;;;;;;2.08;1.55;;;26.70;24.00;;;;;;5107499;28;20414;-63
2021/12/22 02:46:16;;;;;;;2.03;1.20;;;26.80;23.40;;;;;;5107025;28;20135;-63
2021/12/22 02:48:45;;;;;;;2.20;1.73;;;26.70;23.30;;;;;;5108641;28;20043;-63
2021/12/22 02:51:11;;;;;;;1.58;1.38;;;26.70;23.30;;;;;;5108715;28;20105;-63
2021/12/22 02:53:42;;;;;;;2.30;1.42;;;26.80;23.30;;;;;;5107162;28;20085;-63
2021/12/22 03:02:35;;;;;;;1.52;1.40;;;26.70;23.30;;;;;;5130300;27;20374;-63
2021/12/22 03:04:53;;;;;;;2.30;1.48;;;26.70;23.30;;;;;;5129217;28;20039;-63
2021/12/22 03:07:22;;;;;;;1.80;1.40;;;26.80;23.30;;;;;;5128151;27;20043;-63
2021/12/22 03:09:59;;;;;;;1.63;1.42;;;26.80;23.30;;;;;;5128738;28;20074;-63
2021/12/22 03:12:25;;;;;;;1.67;1.38;;;26.90;23.30;;;;;;5128785;28;20086;-63
2021/12/22 03:14:51;;;;;;;1.38;1.27;;;26.90;23.20;;;;;;5128785;28;20069;-63
2021/12/22 03:17:17;;;;;;;1.80;1.70;;;26.80;23.20;;;;;;5128689;28;20043;-63
2021/12/22 03:19:43;;;;;;;1.90;1.60;;;26.90;23.20;;;;;;5128831;28;20054;-63
2021/12/22 03:22:11;;;;;;;1.95;1.40;;;26.90;23.20;;;;;;5130001;28;20032;-63
2021/12/22 03:24:39;;;;;;;1.73;1.40;;;26.90;23.10;;;;;;5128935;28;20058;-63
2021/12/22 03:27:07;;;;;;;2.53;1.50;;;26.90;23.10;;;;;;5127918;28;20050;-63
2021/12/22 03:29:36;;;;;;;1.92;1.58;;;26.90;23.20;;;;;;5128339;28;20058;-63
2021/12/22 03:32:02;;;;;;;2.78;1.77;;;26.90;23.20;;;;;;5128802;28;20058;-63
2021/12/22 03:34:28;;;;;;;2.00;1.65;;;26.90;23.10;;;;;;5129775;28;20549;-63
2021/12/22 03:36:53;;;;;;;2.00;1.65;;;27.00;23.10;;;;;;5130090;28;20118;-63
2021/12/22 03:39:19;;;;;;;2.08;1.83;;;27.10;23.10;;;;;;5129519;28;20478;-63
2021/12/22 03:41:46;;;;;;;1.88;1.75;;;27.10;23.00;;;;;;5129519;28;20167;-63
2021/12/22 03:44:13;;;;;;;1.70;1.45;;;27.10;23.00;;;;;;5128133;28;20107;-64
2021/12/22 03:46:39;;;;;;;2.83;1.70;;;27.10;23.00;;;;;;5129478;28;20042;-63
2021/12/22 03:49:09;;;;;;;1.92;1.50;;;27.10;23.00;;;;;;5128321;28;20483;-63
2021/12/22 03:51:36;;;;;;;1.75;1.23;;;27.00;23.00;;;;;;5128027;28;20163;-63
2021/12/22 03:54:04;;;;;;;2.13;1.92;;;27.10;23.00;;;;;;5128205;28;20062;-63
2021/12/22 03:56:30;;;;;;;2.50;2.20;;;27.10;23.00;;;;;;5128266;28;20043;-63
2021/12/22 03:58:56;;;;;;;3.25;1.60;;;27.00;22.90;;;;;;5128148;27;20437;-63
2021/12/22 04:01:21;;;;;;;1.75;1.63;;;27.10;23.00;;;;;;5128920;28;20043;-63
2021/12/22 04:03:51;;;;;;;1.60;1.50;;;27.10;23.00;;;;;;5129018;28;20428;-64
2021/12/22 04:06:16;;;;;;;1.75;1.20;;;27.10;22.90;;;;;;5129033;28;20043;-63
2021/12/22 04:08:42;;;;;;;2.05;1.85;;;27.10;22.90;;;;;;5129042;28;20062;-63
2021/12/22 04:11:08;;;;;;;2.03;1.83;;;27.20;22.90;;;;;;5126788;28;20121;-63
2021/12/22 04:13:33;;;;;;;2.95;1.58;;;27.20;22.90;;;;;;5114766;28;20046;-63
2021/12/22 04:15:59;;;;;;;2.25;2.05;;;27.20;22.80;;;;;;5113832;28;20035;-63
2021/12/22 04:18:24;;;;;;;1.85;1.40;;;27.20;22.80;;;;;;5113810;28;20043;-63
2021/12/22 04:20:50;;;;;;;2.28;1.63;;;27.20;22.80;;;;;;5113747;28;20119;-63
2021/12/22 04:23:16;;;;;;;1.33;1.23;;;27.20;22.80;;;;;;5115065;28;20036;-63
2021/12/22 04:25:42;;;;;;;1.80;1.50;;;27.20;22.80;;;;;;5114979;28;20106;-63
2021/12/22 04:28:09;;;;;;;1.80;1.70;;;27.20;22.80;;;;;;5113597;28;20040;-63
2021/12/22 04:30:39;;;;;;;2.00;1.80;;;27.20;22.80;;;;;;5113850;28;20054;-63
2021/12/22 04:33:05;;;;;;;1.70;1.13;;;27.20;22.80;;;;;;5113713;28;20054;-63
2021/12/22 04:35:34;;;;;;;2.35;1.52;;;27.20;22.80;;;;;;5113735;28;20052;-63
2021/12/22 04:38:00;;;;;;;1.77;1.67;;;27.30;22.80;;;;;;5113655;28;20338;-63
2021/12/22 04:40:26;;;;;;;1.83;1.63;;;27.30;22.70;;;;;;5114587;28;20043;-63
2021/12/22 04:42:52;;;;;;;1.60;1.50;;;27.20;22.70;;;;;;5113632;28;20032;-63
2021/12/22 04:45:20;;;;;;;1.55;1.45;;;27.20;22.80;;;;;;5113650;28;20670;-63
2021/12/22 04:47:47;;;;;;;2.40;2.10;;;27.20;22.80;;;;;;5114573;28;20035;-63
2021/12/22 04:50:17;;;;;;;2.17;1.98;;;27.20;22.70;;;;;;5114653;28;20045;-63
2021/12/22 04:55:34;;;;;;;2.10;1.92;;;27.30;22.70;;;;;;5130108;27;20346;-63
2021/12/22 04:58:00;;;;;;;1.60;1.50;;;27.30;22.70;;;;;;5129207;28;20046;-63
2021/12/22 05:00:30;;;;;;;2.20;2.00;;;27.30;22.70;;;;;;5129212;28;20379;-63
2021/12/22 05:02:56;;;;;;;1.95;1.67;;;27.30;22.70;;;;;;5129164;28;20039;-63
2021/12/22 05:05:22;;;;;;;2.22;1.77;;;27.30;22.70;;;;;;5129082;28;20031;-63
2021/12/22 05:07:51;;;;;;;2.92;2.28;;;27.30;22.60;;;;;;5128998;28;20047;-63
2021/12/22 05:10:19;;;;;;;2.63;1.92;;;27.30;22.60;;;;;;5130017;27;20067;-63
2021/12/22 05:12:46;;;;;;;1.83;1.65;;;27.40;22.60;;;;;;5129915;27;20371;-63
2021/12/22 05:15:12;;;;;;;1.70;1.60;;;27.50;22.50;;;;;;5128688;28;20032;-63
2021/12/22 05:18:01;;;;;;;2.15;1.58;;;27.70;22.40;;;;;;5129788;27;20043;-63
2021/12/22 05:20:24;;;;;;;2.00;1.80;;;27.80;22.30;;;;;;5129749;28;20043;-63
2021/12/22 05:22:51;;;;;;;1.48;1.38;;;28.00;22.20;;;;;;5129701;27;20417;-63
2021/12/22 05:25:17;;;;;;;1.90;1.70;;;28.10;22.20;;;;;;5129992;27;20089;-63
2021/12/22 05:27:43;;;;;;;3.03;1.63;;;28.30;22.10;;;;;;5129839;28;20082;-63
2021/12/22 05:30:10;;;;;;;2.03;1.90;;;28.40;22.00;;;;;;5129594;28;20028;-63
2021/12/22 05:32:36;;;;;;;3.00;2.45;;;28.50;21.90;;;;;;5128640;28;20044;-63
2021/12/22 05:35:06;;;;;;;1.85;1.67;;;28.60;21.90;;;;;;5129485;27;20046;-63
2021/12/22 05:37:32;;;;;;;2.17;2.00;;;28.60;21.80;;;;;;5128201;28;20031;-63
2021/12/22 05:39:58;;;;;;;2.08;1.80;;;28.60;21.80;;;;;;5128230;28;20118;-63
2021/12/22 05:42:24;;;;;;;2.75;1.60;;;28.60;21.90;;;;;;5128046;28;20119;-63
2021/12/22 05:44:50;;;;;;;2.58;1.83;;;28.50;21.90;;;;;;5129397;27;20518;-63
2021/12/22 05:47:15;;;;;;;2.10;1.90;;;28.40;21.90;;;;;;5127945;28;20043;-63
2021/12/22 05:49:43;;;;;;;2.10;1.90;;;28.30;21.90;;;;;;5129343;28;20550;-63
2021/12/22 05:52:09;;;;;;;2.13;1.63;;;28.20;22.00;;;;;;5129104;27;20036;-63
2021/12/22 05:54:35;;;;;;;2.28;2.00;;;28.20;22.10;;;;;;5127599;28;20510;-63
2021/12/22 05:57:01;;;;;;;2.22;1.90;;;28.10;22.10;;;;;;5127890;28;20078;-63
2021/12/22 05:59:26;;;;;;;2.35;2.15;;;28.00;22.20;;;;;;5129007;28;20086;-63
2021/12/22 06:01:52;;;;;;;2.22;2.03;;;28.00;22.10;;;;;;5129073;28;20390;-63
2021/12/22 06:04:17;;;;;;;1.88;1.58;;;27.90;22.10;;;;;;5128937;27;20054;-63
2021/12/22 06:06:43;;;;;;;1.70;1.60;;;27.90;22.10;;;;;;5116281;28;20075;-63
2021/12/22 06:09:09;;;;;;;2.05;1.80;;;27.90;22.10;;;;;;5115076;28;20087;-63
2021/12/22 06:11:35;;;;;;;2.00;1.85;;;27.90;22.10;;;;;;5131069;27;20069;-63
2021/12/22 06:14:01;;;;;;;1.88;1.60;;;27.90;22.10;;;;;;5113767;28;20051;-63
2021/12/22 06:16:29;;;;;;;2.17;1.98;;;28.00;22.10;;;;;;5113768;28;20040;-63
2021/12/22 06:18:58;;;;;;;2.28;1.95;;;28.00;22.10;;;;;;5115019;28;20119;-63
2021/12/22 06:21:24;;;;;;;2.13;1.85;;;28.00;22.00;;;;;;5113781;28;20044;-63
2021/12/22 06:23:50;;;;;;;1.85;1.67;;;28.00;22.00;;;;;;5113609;28;20088;-63
2021/12/22 06:26:16;;;;;;;2.03;1.63;;;28.10;22.00;;;;;;5113759;28;20129;-63
2021/12/22 06:28:41;;;;;;;2.47;1.70;;;28.10;21.90;;;;;;5114983;28;20503;-63
2021/12/22 06:31:07;;;;;;;2.47;1.92;;;28.10;21.90;;;;;;5114935;28;20105;-63
2021/12/22 06:33:33;;;;;;;3.28;2.00;;;28.10;21.90;;;;;;5114733;28;20387;-63
2021/12/22 06:36:00;;;;;;;2.65;1.98;;;28.20;21.90;;;;;;5113507;28;20043;-63
2021/12/22 06:38:26;;;;;;;2.10;1.90;;;28.10;21.80;;;;;;5114619;28;20101;-63
2021/12/22 06:40:51;;;;;;;2.72;2.17;;;28.20;21.80;;;;;;5113539;28;20119;-63
2021/12/22 06:43:17;;;;;;;3.35;2.05;;;28.20;21.80;;;;;;5114248;28;20123;-61
2021/12/22 06:45:43;;;;;;;30.98;12.73;;;28.20;22.00;;;;;;5113062;28;20134;-62
2021/12/22 06:48:09;;;;;;;7.75;4.28;;;27.70;22.40;;;;;;5113096;28;20115;-62
2021/12/22 06:50:35;;;;;;;5.40;3.58;;;27.10;22.80;;;;;;5112482;28;20043;-62
2021/12/22 06:53:01;;;;;;;5.43;3.58;;;26.60;23.40;;;;;;5114075;28;20119;-63
2021/12/22 06:55:26;;;;;;;5.53;3.13;;;26.30;23.70;;;;;;5111775;28;20042;-64
2021/12/22 06:57:53;;;;;;;5.75;2.42;;;26.20;23.90;;;;;;5112226;28;20071;-64
2021/12/22 07:00:19;;;;;;;3.72;2.63;;;26.10;24.00;;;;;;5110363;28;20122;-63
2021/12/22 07:02:44;;;;;;;3.72;2.42;;;25.80;24.30;;;;;;5111128;28;20486;-64
2021/12/22 07:05:11;;;;;;;3.97;2.60;;;25.60;24.70;;;;;;5110776;28;20039;-66
2021/12/22 07:07:41;;;;;;;3.10;2.75;;;25.60;24.90;;;;;;5110678;28;20043;-65
2021/12/22 07:10:10;;;;;;;64.93;16.63;;;25.60;24.80;;;;;;5112206;28;20139;-64
2021/12/22 07:12:36;;;;;;;18.88;6.15;;;25.70;24.80;;;;;;5111778;28;20048;-66
2021/12/22 07:15:03;;;;;;;20.02;7.40;;;25.80;24.70;;;;;;5112492;28;20062;-65
2021/12/22 07:17:29;;;;;;;11.32;5.30;;;25.80;24.60;;;;;;5109443;28;20514;-66
2021/12/22 07:19:55;;;;;;;11.68;5.25;;;25.80;24.70;;;;;;5111451;28;20071;-63
2021/12/22 07:22:21;;;;;;;8.23;2.65;;;25.70;24.70;;;;;;5112790;28;20092;-65
2021/12/22 07:24:47;;;;;;;8.85;3.05;;;25.60;24.70;;;;;;5113713;28;20118;-66
2021/12/22 07:27:12;;;;;;;7.30;3.58;;;25.50;24.70;;;;;;5110519;28;20134;-65
2021/12/22 07:29:38;;;;;;;6.63;3.25;;;25.30;24.90;;;;;;5111935;28;20038;-66
2021/12/22 07:32:05;;;;;;;4.97;2.85;;;25.10;25.10;;;;;;5112569;28;20047;-66
2021/12/22 07:34:41;;;;;;;8.55;2.92;;;25.10;25.10;;;;;;5110241;28;20044;-67
2021/12/22 07:40:02;;;;;;;6.82;3.78;;;25.40;24.90;;;;;;5107984;27;20416;-67
2021/12/22 07:42:28;;;;;;;5.78;3.13;;;25.20;24.30;;;;;;5107977;28;20122;-67
2021/12/22 07:44:56;;;;;;;7.45;3.22;;;25.20;24.20;;;;;;5090459;28;20638;-66
2021/12/22 07:47:22;;;;;;;4.28;3.00;;;25.20;24.10;;;;;;5095518;28;20051;-65
2021/12/22 07:49:47;;;;;;;9.07;3.33;;;25.30;24.10;;;;;;5091436;28;20575;-65
2021/12/22 07:52:13;;;;;;;4.38;3.03;;;25.30;24.10;;;;;;5094689;28;20038;-65
2021/12/22 07:54:39;;;;;;;5.47;3.28;;;25.30;24.10;;;;;;5094135;28;20032;-65
2021/12/22 07:57:06;;;;;;;184.93;46.17;;;25.30;24.10;;;;;;5091366;28;20039;-65
2021/12/22 07:59:31;;;;;;;36.90;11.70;;;25.20;24.10;;;;;;5088253;28;20032;-66
2021/12/22 08:02:00;;;;;;;25.20;8.23;;;25.10;24.20;;;;;;5097946;28;20421;-65
2021/12/22 08:04:29;;;;;;;13.32;5.82;;;25.10;24.20;;;;;;5091816;28;20036;-66
2021/12/22 08:06:55;;;;;;;11.18;5.53;;;25.20;24.30;;;;;;5087458;28;20032;-65
2021/12/22 08:09:26;;;;;;;13.93;5.03;;;25.30;24.30;;;;;;5095758;28;20089;-67
2021/12/22 08:11:53;;;;;;;13.50;4.80;;;25.30;24.30;;;;;;5094222;28;20048;-67
2021/12/22 08:14:19;;;;;;;11.70;4.32;;;25.40;24.20;;;;;;5102159;28;20093;-66
2021/12/22 08:16:45;;;;;;;7.93;4.22;;;25.60;24.10;;;;;;5105317;28;20040;-66
2021/12/22 08:19:10;;;;;;;8.48;3.60;;;25.60;24.00;;;;;;5105703;28;20126;-65
2021/12/22 08:21:37;;;;;;;9.75;4.13;;;25.60;23.90;;;;;;5107451;28;20032;-66
2021/12/22 08:24:02;;;;;;;6.70;4.28;;;25.50;24.10;;;;;;5105050;28;20554;-66
2021/12/22 08:26:29;;;;;;;7.10;3.33;;;25.20;24.30;;;;;;5103775;28;20115;-63
2021/12/22 08:28:55;;;;;;;5.63;2.88;;;25.30;24.40;;;;;;5101851;28;20047;-66
2021/12/22 08:31:20;;;;;;;7.78;4.25;;;25.40;24.40;;;;;;5101077;28;20043;-69
2021/12/22 08:33:47;;;;;;;6.75;3.38;;;25.40;24.30;;;;;;5104142;28;20085;-69
2021/12/22 08:39:03;;;;;;;6.72;3.47;;;25.50;24.40;;;;;;5100049;28;20380;-69
2021/12/22 08:41:34;;;;;;;5.90;3.35;;;25.60;24.30;;;;;;5102073;28;20039;-66
2021/12/22 08:44:05;;;;;;;7.13;3.13;;;25.60;24.20;;;;;;5098469;28;20222;-64
2021/12/22 08:46:32;;;;;;;7.35;3.28;;;25.60;24.30;;;;;;5104864;28;20119;-68
2021/12/22 08:49:02;;;;;;;7.97;3.15;;;25.50;24.30;;;;;;5103186;28;20119;-64
2021/12/22 08:51:28;;;;;;;5.07;2.65;;;25.50;24.40;;;;;;5091031;28;20081;-66
2021/12/22 08:53:54;;;;;;;7.32;2.83;;;25.50;24.30;;;;;;5091370;28;20652;-67
2021/12/22 08:56:21;;;;;;;4.43;2.50;;;25.50;24.10;;;;;;5093857;28;20040;-67
2021/12/22 08:58:47;;;;;;;2.80;2.03;;;25.50;24.10;;;;;;5092396;28;20484;-64
2021/12/22 09:01:13;;;;;;;4.05;2.10;;;25.90;24.40;;;;;;5091979;28;20514;-64
2021/12/22 09:03:38;;;;;;;6.90;2.60;;;26.40;24.30;;;;;;5089614;28;20040;-62
2021/12/22 09:06:04;;;;;;;5.25;2.50;;;26.90;24.20;;;;;;5091338;28;20043;-67
2021/12/22 09:08:30;;;;;;;3.40;2.92;;;27.20;23.70;;;;;;5089184;28;20169;-66
2021/12/22 09:10:56;;;;;;;3.28;2.03;;;27.00;23.30;;;;;;5091046;28;20140;-66
2021/12/22 09:13:22;;;;;;;5.05;2.85;;;26.70;23.10;;;;;;5090514;28;20576;-67
2021/12/22 09:15:48;;;;;;;4.18;2.17;;;26.50;23.30;;;;;;5089254;28;20488;-64
2021/12/22 09:18:16;;;;;;;4.65;2.70;;;26.30;23.60;;;;;;5081537;28;20059;-67
2021/12/22 09:20:41;;;;;;;4.30;2.40;;;26.10;23.80;;;;;;5083435;28;20039;-64
2021/12/22 09:23:07;;;;;;;2.55;2.00;;;26.10;24.00;;;;;;5087192;28;20044;-67
2021/12/22 09:25:33;;;;;;;5.90;3.95;;;25.90;24.00;;;;;;5089929;28;20085;-67
2021/12/22 09:28:00;;;;;;;6.00;3.00;;;25.40;23.40;;;;;;5089131;28;20047;-64
2021/12/22 09:30:27;;;;;;;4.20;3.00;;;25.10;23.40;;;;;;5089703;28;20039;-65
2021/12/22 09:32:53;;;;;;;4.00;2.78;;;25.60;23.50;;;;;;5089600;28;20048;-66
2021/12/22 09:35:21;;;;;;;3.20;2.40;;;26.10;23.30;;;;;;5090226;28;20047;-65
2021/12/22 09:37:47;;;;;;;3.78;3.00;;;26.60;23.10;;;;;;5089535;28;20054;-65
2021/12/22 09:40:13;;;;;;;2.50;1.95;;;26.90;23.00;;;;;;5087045;28;20052;-65
2021/12/22 09:42:39;;;;;;;3.80;2.40;;;27.20;22.90;;;;;;5088256;28;20036;-67
2021/12/22 09:45:06;;;;;;;5.45;2.28;;;27.30;22.90;;;;;;5092085;28;20479;-67
2021/12/22 09:47:47;;;;;;;3.45;2.40;;;27.20;22.80;;;;;;5088264;28;20484;-66
2021/12/22 09:50:13;;;;;;;3.85;1.95;;;26.80;23.10;;;;;;5089576;28;20122;-67
2021/12/22 09:52:39;;;;;;;6.88;2.72;;;26.40;23.50;;;;;;5088474;28;20048;-67
2021/12/22 09:55:08;;;;;;;4.43;2.33;;;26.10;23.90;;;;;;5088850;28;20043;-65
2021/12/22 09:57:34;;;;;;;3.42;2.40;;;25.80;24.30;;;;;;5088842;28;20043;-66
2021/12/22 10:00:03;;;;;;;3.00;2.20;;;25.60;24.60;;;;;;5088088;28;20032;-67
2021/12/22 10:02:30;;;;;;;4.23;2.13;;;25.60;24.60;;;;;;5090900;28;20069;-66
2021/12/22 10:04:59;;;;;;;3.55;1.70;;;25.40;24.80;;;;;;5071568;28;20119;-66
2021/12/22 10:07:27;;;;;;;6.28;2.22;;;25.20;25.00;;;;;;5090311;28;20096;-67
2021/12/22 10:09:55;;;;;;;2.70;1.70;;;25.20;25.20;;;;;;5090314;28;20079;-65
2021/12/22 10:12:24;;;;;;;1.70;1.38;;;25.10;25.20;;;;;;5085932;28;20043;-67
2021/12/22 10:15:07;;;;;;;2.90;1.30;;;25.30;25.20;;;;;;5086599;28;20044;-68
2021/12/22 10:20:16;;;;;;;3.72;2.05;;;25.40;25.10;;;;;;5086480;28;20787;-66
2021/12/22 10:22:44;;;;;;;5.43;2.35;;;25.60;24.20;;;;;;5086142;28;20463;-65
2021/12/22 10:28:09;;;;;;;4.90;1.75;;;25.70;24.10;;;;;;5084620;28;20405;-64
2021/12/22 10:30:39;;;;;;;2.63;2.20;;;27.10;23.80;;;;;;5085888;28;20045;-70
2021/12/22 10:33:15;;;;;;;4.00;3.00;;;27.10;23.00;;;;;;5081835;28;20044;-63
2021/12/22 10:35:44;;;;;;;3.95;2.80;;;26.50;22.50;;;;;;5085953;28;20097;-67
2021/12/22 10:38:12;;;;;;;9.75;3.03;;;26.10;22.80;;;;;;5086175;28;20071;-66
2021/12/22 10:40:42;;;;;;;3.30;2.70;;;25.70;23.10;;;;;;5086532;28;20044;-66
2021/12/22 10:43:13;;;;;;;3.25;2.80;;;25.40;23.30;;;;;;5085320;28;20097;-67
2021/12/22 10:45:39;;;;;;;5.07;2.25;;;25.00;23.50;;;;;;5087178;28;20052;-65
2021/12/22 10:50:56;;;;;;;4.03;1.90;;;24.30;24.50;;;;;;5085979;28;20610;-67
2021/12/22 10:53:24;;;;;;;2.97;2.35;;;24.00;25.10;;;;;;5084573;28;20048;-65
2021/12/22 10:55:53;;;;;;;2.35;1.50;;;23.70;25.60;;;;;;5086157;28;20077;-65
2021/12/22 11:03:51;;;;;;;4.05;1.42;;;22.80;26.70;;;;;;5129364;27;20901;-64
2021/12/22 11:06:25;;;;;;;3.55;2.17;;;22.50;27.00;;;;;;5127600;28;20114;-66
2021/12/22 11:11:41;;;;;;;6.07;2.20;;;22.00;27.70;;;;;;5129814;27;20318;-64
2021/12/22 11:14:11;;;;;;;3.10;1.90;;;21.80;28.00;;;;;;5124817;28;20043;-65
2021/12/22 11:17:00;;;;;;;2.10;1.48;;;21.60;28.30;;;;;;5127514;27;20047;-63
2021/12/22 11:19:30;;;;;;;5.00;1.83;;;21.50;28.50;;;;;;5128867;27;20517;-64
2021/12/22 11:22:03;;;;;;;2.75;1.98;;;21.40;28.70;;;;;;5127628;27;20072;-71
2021/12/22 11:24:32;;;;;;;7.60;2.13;;;21.20;29.00;;;;;;5126091;27;20074;-64
2021/12/22 11:26:58;;;;;;;5.43;1.95;;;21.10;29.10;;;;;;5126967;28;20498;-69
2021/12/22 11:29:28;;;;;;;2.75;1.92;;;21.00;29.30;;;;;;5128040;27;20035;-66
2021/12/22 11:31:54;;;;;;;2.85;1.88;;;20.90;29.40;;;;;;5127919;27;20049;-68
2021/12/22 11:34:21;;;;;;;2.50;1.80;;;20.80;29.30;;;;;;5125834;28;20027;-66
2021/12/22 11:36:49;;;;;;;3.10;1.65;;;20.70;29.40;;;;;;5127155;28;20068;-65
2021/12/22 11:39:15;;;;;;;2.83;1.92;;;20.50;29.50;;;;;;5126403;28;20035;-69
2021/12/22 11:41:44;;;;;;;3.80;1.67;;;20.40;29.50;;;;;;5127233;28;20092;-66
2021/12/22 11:44:11;;;;;;;4.95;1.92;;;20.30;29.60;;;;;;5125967;28;20100;-65
2021/12/22 11:46:40;;;;;;;1.85;1.35;;;20.20;29.60;;;;;;5124222;28;20491;-65
2021/12/22 11:49:06;;;;;;;5.53;2.10;;;20.10;29.70;;;;;;5124084;28;20047;-68
2021/12/22 11:51:34;;;;;;;2.30;1.80;;;20.00;29.80;;;;;;5127754;27;20475;-65
2021/12/22 11:54:09;;;;;;;4.32;2.00;;;19.90;29.90;;;;;;5125777;28;20043;-64
2021/12/22 11:59:37;;;;;;;2.33;1.65;;;19.80;30.00;;;;;;5093487;27;20696;-65
2021/12/22 12:02:20;;;;;;;3.08;2.28;;;19.70;30.30;;;;;;5072640;28;20048;-65
2021/12/22 12:04:49;;;;;;;2.97;1.63;;;19.60;30.40;;;;;;5120371;27;20044;-68
2021/12/22 12:07:43;;;;;;;3.47;1.40;;;19.50;30.60;;;;;;5092632;28;20403;-65
2021/12/22 12:21:59;;;;;;;3.28;1.52;;;19.40;31.00;;;;;;5127516;27;20410;-69
2021/12/22 12:30:13;;;;;;;2.38;1.63;;;19.20;32.00;;;;;;5127567;27;20390;-66
2021/12/22 12:46:29;;;;;;;3.20;1.80;;;19.10;31.90;;;;;;5127690;27;20807;-68
2021/12/22 12:57:20;;;;;;;2.63;1.65;;;19.00;32.30;;;;;;5128066;27;20354;-63
2021/12/22 13:02:27;;;;;;;3.72;1.58;;;18.90;32.00;;;;;;5127439;27;20349;-67
2021/12/22 13:07:38;;;;;;;3.63;1.80;;;18.90;32.20;;;;;;5152912;27;1157060;-64
2021/12/22 13:10:11;;;;;;;3.35;1.70;;;18.80;32.50;;;;;;5131081;27;20286;-63
2021/12/22 13:15:51;;;;;;;3.63;1.98;;;18.80;32.80;;;;;;5127514;27;20403;-63
2021/12/22 13:20:56;;;;;;;2.20;1.55;;;18.70;32.70;;;;;;5089430;27;20052;-63
2021/12/22 13:23:24;;;;;;;2.13;1.77;;;18.70;32.60;;;;;;5087908;28;20048;-63
2021/12/22 13:25:53;;;;;;;3.10;1.63;;;18.70;32.70;;;;;;5087674;28;20068;-63
2021/12/22 13:28:25;;;;;;;3.63;1.17;;;18.70;32.70;;;;;;5085594;28;20420;-65
2021/12/22 13:30:58;;;;;;;1.40;1.00;;;18.70;32.70;;;;;;5087883;28;20067;-63
2021/12/22 13:33:33;;;;;;;2.53;1.70;;;18.70;32.70;;;;;;5086681;28;20040;-65
2021/12/22 13:36:08;;;;;;;2.13;1.70;;;18.70;32.80;;;;;;5085041;28;20043;-65
2021/12/22 13:38:41;;;;;;;2.90;1.60;;;18.70;32.90;;;;;;5087463;28;20130;-65
2021/12/22 13:41:12;;;;;;;2.22;1.63;;;18.60;32.90;;;;;;5088796;28;20051;-64
2021/12/22 13:46:30;;;;;;;3.85;1.65;;;18.60;32.90;;;;;;5129756;27;20371;-65
2021/12/22 13:49:00;;;;;;;2.45;1.60;;;18.60;33.00;;;;;;5110936;28;20039;-64
2021/12/22 13:51:27;;;;;;;;;;;18.60;33.10;;;;;;5110258;28;20123;-64
2021/12/22 13:53:55;;;;;;;2.03;1.42;;;18.60;33.00;;;;;;5108332;28;19916;-64
2021/12/22 13:56:22;;;;;;;1.85;1.40;;;18.60;33.10;;;;;;5117920;28;20050;-64
2021/12/22 13:59:06;;;;;;;2.53;1.77;;;18.60;33.20;;;;;;5114633;28;20054;-64
2021/12/22 14:06:55;;;;;;;2.15;1.52;;;18.60;33.20;;;;;;5088648;28;20421;-65
2021/12/22 14:09:24;;;;;;;2.42;1.42;;;18.60;33.30;;;;;;5080074;28;20131;-65
2021/12/22 14:12:00;;;;;;;2.22;1.52;;;18.60;33.30;;;;;;5088314;28;20070;-66
2021/12/22 14:22:36;;;;;;;2.30;1.75;;;18.60;33.50;;;;;;5129083;27;20426;-66
2021/12/22 14:27:48;;;;;;;2.85;1.83;;;18.60;33.50;;;;;;5128466;27;20402;-66
2021/12/22 14:35:43;;;;;;;2.40;1.83;;;18.60;33.60;;;;;;5129581;27;20349;-65
2021/12/22 14:38:16;;;;;;;1.70;1.38;;;18.50;33.60;;;;;;5124747;28;20039;-66
2021/12/22 14:40:54;;;;;;;2.75;1.90;;;18.50;33.70;;;;;;5119880;28;20043;-66
2021/12/22 14:43:35;;;;;;;2.60;1.65;;;18.50;33.70;;;;;;5150939;27;20055;-65
2021/12/22 14:46:01;;;;;;;2.75;1.40;;;18.50;33.70;;;;;;5116511;28;20031;-65